Time;durP1;ratioP1;P1;durP2;ratioP2;P2;SDS_P1;SDS_P2;PMS_P1;PMS_P2;Temp;Humidity;BMP_temperature;BMP_pressure;BME280_temperature;BME280_humidity;BME280_pressure;Samples;Min_cycle;Max_cycle;Signal;HPM_P1;HPM_P2
2024/02/04 00:01:40;;;;;;;31.42;17.02;;;;;;;2.43;100.00;100866.63;5049048;28;20466;-67
2024/02/04 00:04:06;;;;;;;22.13;13.68;;;;;;;2.43;100.00;100869.16;5049311;28;20141;-66
2024/02/04 00:06:32;;;;;;;37.50;20.55;;;;;;;2.46;100.00;100869.38;5048547;28;20037;-66
2024/02/04 00:08:57;;;;;;;18.92;11.90;;;;;;;2.37;100.00;100864.47;5048965;28;20098;-69
2024/02/04 00:11:23;;;;;;;26.80;16.33;;;;;;;1.94;100.00;100784.78;5047781;28;20033;-65
2024/02/04 00:13:49;;;;;;;17.67;11.27;;;;;;;2.39;100.00;100860.41;5048645;28;20040;-65
2024/02/04 00:16:14;;;;;;;19.45;11.73;;;;;;;2.29;100.00;100859.56;5048353;28;20036;-67
2024/02/04 00:18:40;;;;;;;18.55;11.00;;;;;;;2.38;100.00;100860.25;5048584;28;20033;-65
2024/02/04 00:21:05;;;;;;;19.10;11.07;;;;;;;2.36;100.00;100855.06;5035880;28;20038;-67
2024/02/04 00:23:31;;;;;;;20.25;11.63;;;;;;;1.82;100.00;100761.84;5043875;28;20056;-68
2024/02/04 00:25:56;;;;;;;20.30;11.52;;;;;;;1.84;100.00;100773.00;5048751;28;20021;-69
2024/02/04 00:28:22;;;;;;;16.70;10.05;;;;;;;2.29;100.00;100850.25;5048555;28;20025;-69
2024/02/04 00:30:49;;;;;;;16.50;10.73;;;;;;;2.27;100.00;100854.38;5047670;28;20017;-67
2024/02/04 00:33:15;;;;;;;15.10;9.93;;;;;;;2.25;100.00;100858.44;5046309;28;20041;-67
2024/02/04 00:35:41;;;;;;;17.48;10.13;;;;;;;2.18;100.00;100848.56;5048491;28;20021;-68
2024/02/04 00:38:08;;;;;;;18.95;10.27;;;;;;;2.04;100.00;100833.09;5047928;28;20040;-67
2024/02/04 00:40:34;;;;;;;19.80;10.52;;;;;;;2.05;100.00;100841.63;5047650;28;20111;-68
2024/02/04 00:43:00;;;;;;;16.75;10.73;;;;;;;2.07;100.00;100866.44;5048071;28;20111;-68
2024/02/04 00:45:26;;;;;;;16.65;10.93;;;;;;;1.99;100.00;100871.72;5040917;28;20037;-66
2024/02/04 00:47:51;;;;;;;16.00;10.43;;;;;;;1.90;100.00;100859.16;5042620;28;20041;-72
2024/02/04 00:50:17;;;;;;;16.63;10.32;;;;;;;1.35;100.00;100782.81;5042231;28;20040;-68
2024/02/04 00:52:42;;;;;;;16.63;10.38;;;;;;;1.88;100.00;100884.50;5039111;28;20029;-68
2024/02/04 00:55:08;;;;;;;16.65;10.25;;;;;;;1.84;100.00;100876.50;5055371;28;20029;-67
2024/02/04 00:57:34;;;;;;;15.25;9.70;;;;;;;1.73;100.00;100862.94;5041256;28;20025;-67
2024/02/04 00:59:59;;;;;;;18.60;9.52;;;;;;;1.76;100.00;100871.69;5036683;28;20030;-70
2024/02/04 01:02:25;;;;;;;20.17;9.38;;;;;;;1.45;100.00;100815.84;5047935;28;20036;-69
2024/02/04 01:04:51;;;;;;;15.70;9.82;;;;;;;1.76;100.00;100871.69;5048444;28;20032;-69
2024/02/04 01:07:17;;;;;;;21.58;10.95;;;;;;;1.74;100.00;100862.16;5049611;28;20044;-68
2024/02/04 01:09:42;;;;;;;15.40;9.23;;;;;;;1.80;100.00;100879.59;5050802;28;20041;-65
2024/02/04 01:12:08;;;;;;;19.52;11.45;;;;;;;1.72;100.00;100877.31;5051073;28;20029;-65
2024/02/04 01:14:34;;;;;;;18.38;9.85;;;;;;;1.61;100.00;100875.59;5050504;28;20119;-67
2024/02/04 01:16:59;;;;;;;17.45;10.60;;;;;;;1.42;100.00;100879.22;5050344;28;20724;-64
2024/02/04 01:19:25;;;;;;;19.98;11.40;;;;;;;1.26;100.00;100878.75;5050313;28;20163;-71
2024/02/04 01:21:50;;;;;;;18.98;10.32;;;;;;;0.76;100.00;100793.41;5050590;28;20075;-65
2024/02/04 01:24:16;;;;;;;24.70;12.30;;;;;;;1.30;100.00;100880.75;5047148;28;20030;-67
2024/02/04 01:26:41;;;;;;;18.58;9.07;;;;;;;1.02;100.00;100845.44;5051138;28;20044;-67
2024/02/04 01:29:07;;;;;;;16.33;10.40;;;;;;;1.27;100.00;100878.88;5050036;28;20040;-68
2024/02/04 01:31:32;;;;;;;20.88;12.05;;;;;;;1.35;100.00;100866.75;5048584;28;20539;-68
2024/02/04 01:33:58;;;;;;;23.55;12.10;;;;;;;0.73;100.00;100757.56;5046764;28;20138;-66
2024/02/04 01:36:24;;;;;;;18.52;11.77;;;;;;;1.35;100.00;100879.47;5051681;28;20033;-66
2024/02/04 01:38:49;;;;;;;20.88;11.57;;;;;;;1.23;100.00;100861.56;5051064;28;20032;-71
2024/02/04 01:41:15;;;;;;;20.80;11.65;;;;;;;0.71;100.00;100771.81;5050919;28;20082;-65
2024/02/04 01:43:41;;;;;;;23.55;13.85;;;;;;;1.20;100.00;100865.53;5050738;28;20099;-67
2024/02/04 01:46:07;;;;;;;18.10;10.83;;;;;;;1.13;100.00;100852.31;5051094;28;20036;-67
2024/02/04 01:48:32;;;;;;;23.60;11.67;;;;;;;0.77;100.00;100795.19;5051227;28;20408;-67
2024/02/04 01:51:00;;;;;;;19.05;10.15;;;;;;;1.22;100.00;100846.19;5051503;28;20017;-66
2024/02/04 01:53:27;;;;;;;20.95;11.00;;;;;;;1.23;100.00;100845.44;5051623;28;20043;-67
2024/02/04 01:55:54;;;;;;;18.23;10.70;;;;;;;0.69;100.00;100753.00;5050837;28;20021;-66
2024/02/04 01:58:21;;;;;;;18.33;11.23;;;;;;;1.23;100.00;100846.31;5050966;28;20029;-66
2024/02/04 02:00:49;;;;;;;18.00;10.35;;;;;;;1.23;100.00;100858.13;5051707;28;20025;-70
2024/02/04 02:03:16;;;;;;;21.65;11.23;;;;;;;1.23;100.00;100848.84;5050919;28;20052;-66
2024/02/04 02:05:41;;;;;;;23.98;10.95;;;;;;;1.28;100.00;100849.22;5050722;28;20036;-67
2024/02/04 02:08:07;;;;;;;19.52;11.30;;;;;;;1.20;100.00;100846.06;5031218;28;20044;-67
2024/02/04 02:10:33;;;;;;;51.75;22.33;;;;;;;1.12;100.00;100850.53;5050366;28;20141;-66
2024/02/04 02:13:09;;;;;;;22.98;10.98;;;;;;;1.18;100.00;100852.69;5051031;28;20033;-65
2024/02/04 02:15:49;;;;;;;18.43;11.53;;;;;;;0.41;100.00;100777.81;5050574;28;20036;-65
2024/02/04 02:18:27;;;;;;;22.35;11.57;;;;;;;0.58;100.00;100800.41;5049098;28;20029;-66
2024/02/04 02:21:07;;;;;;;21.60;10.90;;;;;;;0.92;100.00;100838.75;5050502;28;20056;-66
2024/02/04 02:24:03;;;;;;;18.95;10.07;;;;;;;0.96;100.00;100847.53;5050127;28;20048;-65
2024/02/04 02:26:31;;;;;;;15.87;8.93;;;;;;;1.07;100.00;100831.50;5046363;28;20032;-65
2024/02/04 02:28:57;;;;;;;18.30;9.10;;;;;;;1.02;100.00;100820.03;5050079;28;20029;-66
2024/02/04 02:31:22;;;;;;;17.17;9.63;;;;;;;1.05;100.00;100812.66;5048368;28;20056;-67
2024/02/04 02:33:48;;;;;;;18.50;9.23;;;;;;;1.22;100.00;100824.19;5050240;28;20448;-66
2024/02/04 02:36:19;;;;;;;18.97;8.77;;;;;;;0.93;100.00;100781.16;5050217;28;20021;-66
2024/02/04 02:39:10;;;;;;;14.00;8.93;;;;;;;1.06;100.00;100805.91;5050328;28;20112;-65
2024/02/04 02:41:36;;;;;;;14.02;8.38;;;;;;;1.10;100.00;100818.13;5050159;28;20031;-66
2024/02/04 02:44:04;;;;;;;16.95;9.30;;;;;;;1.10;100.00;100820.69;5050032;28;20036;-65
2024/02/04 02:46:30;;;;;;;19.73;9.50;;;;;;;1.13;100.00;100820.91;5050914;28;20025;-66
2024/02/04 02:48:57;;;;;;;18.60;10.55;;;;;;;0.84;100.00;100771.16;5049404;28;20032;-67
2024/02/04 02:51:22;;;;;;;17.23;9.83;;;;;;;1.12;100.00;100820.03;5045373;28;20056;-66
2024/02/04 02:53:48;;;;;;;16.52;8.88;;;;;;;0.99;100.00;100802.00;5049380;28;20029;-66
2024/02/04 02:56:14;;;;;;;16.77;8.85;;;;;;;0.53;100.00;100724.59;5049741;28;20087;-66
2024/02/04 02:58:39;;;;;;;15.27;8.80;;;;;;;1.01;100.00;100817.38;5049573;28;20399;-65
2024/02/04 03:01:05;;;;;;;20.37;10.37;;;;;;;0.91;100.00;100813.19;5039486;28;20086;-68
2024/02/04 03:03:30;;;;;;;15.05;10.07;;;;;;;0.93;100.00;100822.72;5045550;28;20060;-66
2024/02/04 03:05:55;;;;;;;19.85;10.20;;;;;;;0.91;100.00;100819.19;5049380;28;20090;-65
2024/02/04 03:08:21;;;;;;;17.25;9.30;;;;;;;0.43;100.00;100758.50;5049690;28;20087;-66
2024/02/04 03:10:46;;;;;;;17.30;9.67;;;;;;;0.80;100.00;100831.00;5049416;28;20033;-67
2024/02/04 03:13:12;;;;;;;15.25;9.27;;;;;;;0.79;100.00;100838.53;5049951;28;20767;-67
2024/02/04 03:15:38;;;;;;;14.97;8.97;;;;;;;0.35;100.00;100768.06;5049371;28;20036;-66
2024/02/04 03:18:03;;;;;;;18.83;9.63;;;;;;;0.05;100.00;100729.19;5050182;28;20033;-66
2024/02/04 03:20:29;;;;;;;20.73;10.73;;;;;;;0.11;100.00;100747.47;5049382;28;20029;-69
2024/02/04 03:22:55;;;;;;;19.57;9.67;;;;;;;0.30;100.00;100792.19;5049389;28;20036;-66
2024/02/04 03:25:22;;;;;;;17.43;11.63;;;;;;;0.45;100.00;100831.53;5047877;28;20037;-66
2024/02/04 03:27:48;;;;;;;17.77;11.07;;;;;;;-0.34;100.00;100694.66;5048710;28;20507;-65
2024/02/04 03:30:14;;;;;;;22.20;10.93;;;;;;;0.39;100.00;100831.03;5049882;28;20025;-64
2024/02/04 03:32:39;;;;;;;18.97;12.33;;;;;;;0.38;100.00;100821.63;5049218;28;20037;-72
2024/02/04 03:35:05;;;;;;;21.50;12.80;;;;;;;0.33;100.00;100822.91;5040248;28;20095;-67
2024/02/04 03:37:30;;;;;;;27.07;13.17;;;;;;;0.05;100.00;100776.53;5049010;28;20079;-66
2024/02/04 03:39:56;;;;;;;18.30;11.20;;;;;;;0.30;100.00;100821.00;5042919;28;20037;-66
2024/02/04 03:42:22;;;;;;;20.50;11.80;;;;;;;0.24;100.00;100822.13;5043555;28;20056;-66
2024/02/04 03:44:47;;;;;;;23.37;13.03;;;;;;;0.26;100.00;100813.88;5048668;28;20037;-71
2024/02/04 03:47:13;;;;;;;20.93;12.53;;;;;;;0.21;100.00;100822.75;5049104;28;20029;-67
2024/02/04 03:49:40;;;;;;;24.13;12.97;;;;;;;0.19;100.00;100818.28;5049257;28;20033;-66
2024/02/04 03:52:05;;;;;;;20.23;12.77;;;;;;;0.05;100.00;100815.50;5048831;28;20040;-70
2024/02/04 03:54:31;;;;;;;22.10;11.50;;;;;;;0.07;100.00;100821.59;5042169;28;20040;-68
2024/02/04 03:56:56;;;;;;;23.27;12.23;;;;;;;0.04;100.00;100820.44;5048673;28;20036;-66
2024/02/04 03:59:22;;;;;;;25.67;14.03;;;;;;;0.07;100.00;100820.72;5049162;28;20036;-69
2024/02/04 04:01:49;;;;;;;23.30;13.13;;;;;;;-0.02;100.00;100800.53;5049128;28;20043;-67
2024/02/04 04:04:15;;;;;;;25.00;12.40;;;;;;;0.12;100.00;100820.31;5048449;28;20500;-65
2024/02/04 04:06:41;;;;;;;21.17;11.07;;;;;;;0.11;100.00;100817.66;5048954;28;20119;-66
2024/02/04 04:09:06;;;;;;;22.50;12.00;;;;;;;0.15;100.00;100827.34;5048595;28;20029;-68
2024/02/04 04:11:32;;;;;;;18.50;11.73;;;;;;;0.20;100.00;100820.09;5047200;28;20040;-65
2024/02/04 04:13:57;;;;;;;19.83;12.40;;;;;;;0.12;100.00;100809.28;5049405;28;20541;-69
2024/02/04 04:16:23;;;;;;;19.63;11.57;;;;;;;0.22;100.00;100816.03;5042005;28;20033;-67
2024/02/04 04:18:49;;;;;;;19.17;11.07;;;;;;;0.27;100.00;100802.94;5038530;28;20556;-68
2024/02/04 04:21:15;;;;;;;18.83;11.30;;;;;;;-0.10;100.00;100741.50;5046884;28;20051;-68
2024/02/04 04:23:41;;;;;;;20.37;11.70;;;;;;;0.22;100.00;100786.44;5041616;28;20105;-67
2024/02/04 04:26:06;;;;;;;18.67;10.40;;;;;;;0.25;100.00;100789.25;5048495;28;20450;-70
2024/02/04 04:28:32;;;;;;;19.20;10.43;;;;;;;0.28;100.00;100786.06;5044968;28;20029;-65
2024/02/04 04:30:57;;;;;;;17.40;10.00;;;;;;;0.25;100.00;100778.19;5044108;28;20025;-68
2024/02/04 04:33:23;;;;;;;19.37;11.70;;;;;;;-0.02;100.00;100747.22;5048354;28;20058;-67
2024/02/04 04:35:48;;;;;;;21.43;11.83;;;;;;;0.20;100.00;100779.47;5047087;28;20033;-69
2024/02/04 04:38:14;;;;;;;20.67;11.70;;;;;;;-0.39;100.00;100696.78;5030580;28;20045;-68
2024/02/04 04:40:43;;;;;;;19.53;11.50;;;;;;;0.06;100.00;100784.25;5052183;28;20024;-70
2024/02/04 04:43:08;;;;;;;17.63;11.37;;;;;;;0.04;100.00;100782.34;5047708;28;20025;-68
2024/02/04 04:45:35;;;;;;;19.83;12.53;;;;;;;-0.02;100.00;100772.59;5047063;28;20431;-69
2024/02/04 04:48:00;;;;;;;20.63;12.03;;;;;;;-0.02;100.00;100764.97;5049053;28;20048;-69
2024/02/04 04:50:27;;;;;;;20.80;12.33;;;;;;;0.04;100.00;100779.81;5051878;28;20058;-68
2024/02/04 04:52:52;;;;;;;21.13;12.23;;;;;;;-0.11;100.00;100762.56;5051166;28;20029;-67
2024/02/04 04:55:19;;;;;;;21.13;12.80;;;;;;;-0.83;100.00;100636.50;5052104;28;20081;-70
2024/02/04 04:57:44;;;;;;;23.10;12.93;;;;;;;0.14;100.00;100787.47;5052427;28;20465;-69
2024/02/04 05:00:12;;;;;;;23.23;14.33;;;;;;;0.14;100.00;100793.41;5050794;28;20205;-66
2024/02/04 05:02:39;;;;;;;25.87;14.50;;;;;;;0.15;100.00;100815.53;5051161;28;20523;-67
2024/02/04 05:05:06;;;;;;;22.43;12.23;;;;;;;0.16;100.00;100821.47;5051709;28;20365;-67
2024/02/04 05:07:31;;;;;;;25.40;14.00;;;;;;;0.18;100.00;100814.88;5051718;28;20056;-68
2024/02/04 05:09:57;;;;;;;23.43;12.93;;;;;;;0.17;100.00;100813.09;5048921;28;20051;-70
2024/02/04 05:12:22;;;;;;;19.93;13.07;;;;;;;0.18;100.00;100817.41;5049707;28;20126;-68
2024/02/04 05:14:48;;;;;;;19.60;13.30;;;;;;;0.15;100.00;100800.28;5051649;28;20075;-69
2024/02/04 05:17:13;;;;;;;21.07;12.70;;;;;;;0.35;100.00;100823.94;5052135;28;20025;-69
2024/02/04 05:19:42;;;;;;;22.93;13.30;;;;;;;0.35;100.00;100813.75;5051878;28;20485;-69
2024/02/04 05:22:08;;;;;;;17.38;9.93;;;;;;;0.24;100.00;100796.75;5050820;28;20036;-68
2024/02/04 05:24:33;;;;;;;21.97;12.50;;;;;;;0.31;100.00;100810.06;5049605;28;20045;-66
2024/02/04 05:26:58;;;;;;;20.50;13.07;;;;;;;0.30;100.00;100799.81;5051589;28;20060;-66
2024/02/04 05:29:24;;;;;;;19.10;11.67;;;;;;;-0.03;100.00;100722.59;5052010;28;20025;-67
2024/02/04 05:31:49;;;;;;;20.70;12.27;;;;;;;0.58;100.00;100815.66;5051878;28;20104;-68
2024/02/04 05:34:15;;;;;;;19.00;12.27;;;;;;;0.72;100.00;100823.53;5051979;28;20036;-67
2024/02/04 05:36:41;;;;;;;16.07;11.13;;;;;;;0.80;100.00;100825.94;5051572;28;20079;-66
2024/02/04 05:39:11;;;;;;;19.27;12.10;;;;;;;0.84;100.00;100833.81;5052325;28;20037;-67
2024/02/04 05:41:38;;;;;;;48.17;24.53;;;;;;;0.86;100.00;100840.81;5032879;28;20045;-66
2024/02/04 05:44:04;;;;;;;33.23;18.90;;;;;;;0.89;100.00;100842.69;5051862;28;20063;-66
2024/02/04 05:46:29;;;;;;;20.27;11.97;;;;;;;0.42;100.00;100759.28;5048693;28;20532;-66
2024/02/04 05:48:55;;;;;;;18.63;10.73;;;;;;;0.36;100.00;100736.78;5049610;28;20087;-68
2024/02/04 05:51:21;;;;;;;18.93;11.47;;;;;;;0.99;100.00;100840.13;5051461;28;20037;-67
2024/02/04 05:53:46;;;;;;;19.50;10.30;;;;;;;0.83;100.00;100817.66;5050710;28;20052;-69
2024/02/04 05:56:12;;;;;;;17.10;11.10;;;;;;;0.93;100.00;100832.00;5050941;28;20071;-69
2024/02/04 05:58:37;;;;;;;16.87;11.47;;;;;;;0.88;100.00;100833.28;5051143;28;20412;-68
2024/02/04 06:01:05;;;;;;;17.17;10.95;;;;;;;0.96;100.00;100830.59;5050873;28;20025;-68
2024/02/04 06:03:30;;;;;;;19.37;12.90;;;;;;;0.40;100.00;100732.84;5050715;28;20458;-67
2024/02/04 06:05:56;;;;;;;21.83;13.63;;;;;;;0.80;100.00;100818.31;5051377;28;20029;-68
2024/02/04 06:08:21;;;;;;;21.03;13.40;;;;;;;0.80;100.00;100840.31;5049246;28;20063;-69
2024/02/04 06:10:47;;;;;;;22.60;12.80;;;;;;;0.80;100.00;100842.84;5048972;28;20025;-66
2024/02/04 06:13:14;;;;;;;22.13;13.00;;;;;;;0.81;100.00;100839.53;5048613;28;20468;-66
2024/02/04 06:15:39;;;;;;;20.27;12.77;;;;;;;0.67;100.00;100817.19;5047350;28;20099;-66
2024/02/04 06:18:05;;;;;;;21.97;11.83;;;;;;;0.76;100.00;100829.00;5049787;28;20176;-67
2024/02/04 06:20:30;;;;;;;21.50;12.87;;;;;;;0.85;100.00;100838.13;5046800;28;20063;-69
2024/02/04 06:22:57;;;;;;;18.17;11.20;;;;;;;0.73;100.00;100802.44;5047020;28;20796;-67
2024/02/04 06:25:23;;;;;;;20.90;12.57;;;;;;;0.85;100.00;100820.31;5046507;28;20033;-68
2024/02/04 06:27:49;;;;;;;20.57;12.33;;;;;;;0.87;100.00;100831.50;5047010;28;20025;-70
2024/02/04 06:30:15;;;;;;;20.37;11.77;;;;;;;0.88;100.00;100815.50;5049015;28;20029;-67
2024/02/04 06:32:41;;;;;;;19.13;12.27;;;;;;;0.45;100.00;100735.00;5043394;28;20075;-68
2024/02/04 06:35:07;;;;;;;21.93;13.30;;;;;;;0.88;100.00;100805.34;5042028;28;20032;-64
2024/02/04 06:37:32;;;;;;;23.23;14.50;;;;;;;1.13;100.00;100826.00;5041485;28;20064;-66
2024/02/04 06:39:58;;;;;;;20.00;12.43;;;;;;;1.14;100.00;100812.50;5041325;28;20048;-66
2024/02/04 06:42:23;;;;;;;17.92;11.57;;;;;;;1.18;100.00;100814.53;5041797;28;20095;-67
2024/02/04 06:44:49;;;;;;;19.50;12.45;;;;;;;1.28;100.00;100806.88;5042482;28;20065;-67
2024/02/04 06:47:14;;;;;;;18.20;11.63;;;;;;;1.33;100.00;100808.91;5042123;28;20029;-66
2024/02/04 06:49:44;;;;;;;22.15;12.40;;;;;;;1.49;100.00;100822.06;5041047;28;20083;-66
2024/02/04 06:52:10;;;;;;;24.13;12.65;;;;;;;1.40;100.00;100790.81;5004673;28;20045;-66
2024/02/04 06:54:55;;;;;;;20.15;12.05;;;;;;;1.62;100.00;100818.84;5027566;28;20041;-66
2024/02/04 06:57:21;;;;;;;19.05;12.05;;;;;;;1.68;100.00;100829.47;5027951;28;20041;-65
2024/02/04 06:59:48;;;;;;;18.65;11.95;;;;;;;1.70;100.00;100830.50;5026828;28;20065;-66
2024/02/04 07:02:13;;;;;;;20.98;12.07;;;;;;;1.32;100.00;100752.06;5027481;28;20060;-70
2024/02/04 07:04:39;;;;;;;18.50;12.63;;;;;;;1.89;100.00;100837.88;5027245;28;20041;-66
2024/02/04 07:07:04;;;;;;;18.15;10.55;;;;;;;1.90;100.00;100810.78;5027966;28;20433;-69
2024/02/04 07:09:30;;;;;;;22.13;12.43;;;;;;;2.02;100.00;100837.19;5011240;28;20041;-66
2024/02/04 07:11:56;;;;;;;21.33;11.02;;;;;;;2.08;100.00;100836.75;5027324;28;20112;-65
2024/02/04 07:14:21;;;;;;;18.30;11.75;;;;;;;1.64;100.00;100750.25;5027860;28;20046;-66
2024/02/04 07:16:47;;;;;;;18.20;11.18;;;;;;;2.09;100.00;100836.91;5027269;28;20037;-66
2024/02/04 07:19:12;;;;;;;17.20;11.20;;;;;;;2.16;100.00;100843.34;5010788;28;20045;-67
2024/02/04 07:21:38;;;;;;;19.27;11.43;;;;;;;1.68;100.00;100750.56;5027231;28;20545;-66
2024/02/04 07:24:04;;;;;;;24.83;13.07;;;;;;;2.32;100.00;100853.06;5027342;28;20073;-66
2024/02/04 07:26:29;;;;;;;17.50;11.48;;;;;;;2.36;100.00;100855.06;5031831;28;20045;-66
2024/02/04 07:28:55;;;;;;;21.02;12.85;;;;;;;2.39;100.00;100850.22;5041589;28;20029;-65
2024/02/04 07:31:22;;;;;;;20.58;12.73;;;;;;;2.32;100.00;100830.13;5038979;28;20030;-67
2024/02/04 07:33:47;;;;;;;15.20;10.00;;;;;;;2.41;100.00;100827.38;5056164;28;20614;-67
2024/02/04 07:36:13;;;;;;;14.80;9.18;;;;;;;2.47;100.00;100838.03;5040573;28;20119;-66
2024/02/04 07:38:38;;;;;;;18.73;10.55;;;;;;;2.61;100.00;100840.75;5039840;28;20067;-66
2024/02/04 07:41:04;;;;;;;14.48;9.45;;;;;;;2.69;100.00;100840.53;5039290;28;20063;-69
2024/02/04 07:43:29;;;;;;;18.95;10.55;;;;;;;2.73;100.00;100837.44;5039461;28;20409;-66
2024/02/04 07:45:55;;;;;;;16.23;9.82;;;;;;;2.76;100.00;100829.13;5037930;28;20401;-65
2024/02/04 07:48:20;;;;;;;19.23;10.88;;;;;;;2.44;100.00;100771.53;5036433;28;20036;-65
2024/02/04 07:50:47;;;;;;;16.80;10.32;;;;;;;2.88;100.00;100839.34;5039011;28;20044;-66
2024/02/04 07:53:13;;;;;;;20.42;12.07;;;;;;;2.80;100.00;100827.69;5039168;28;20033;-68
2024/02/04 07:55:38;;;;;;;18.25;10.70;;;;;;;2.45;100.00;100775.88;5036621;28;20083;-71
2024/02/04 07:58:04;;;;;;;17.27;10.30;;;;;;;2.90;100.00;100851.44;5048882;28;20398;-67
2024/02/04 08:00:30;;;;;;;18.92;11.25;;;;;;;3.01;100.00;100854.75;5039570;28;20149;-66
2024/02/04 08:02:56;;;;;;;17.48;11.00;;;;;;;2.92;100.00;100831.16;5038840;28;20188;-71
2024/02/04 08:05:21;;;;;;;18.83;11.15;;;;;;;2.98;100.00;100841.81;5036829;28;20480;-68
2024/02/04 08:07:47;;;;;;;14.00;9.63;;;;;;;3.14;100.00;100858.22;5039026;28;20077;-67
2024/02/04 08:10:12;;;;;;;17.73;9.52;;;;;;;3.16;100.00;100855.00;5037879;28;20413;-68
2024/02/04 08:12:39;;;;;;;21.08;13.38;;;;;;;3.26;100.00;100853.13;5051332;28;20071;-67
2024/02/04 08:15:05;;;;;;;28.38;16.75;;;;;;;3.27;100.00;100857.47;5045697;28;20029;-72
2024/02/04 08:17:31;;;;;;;29.35;17.27;;;;;;;3.30;100.00;100847.47;5046716;28;20563;-67
2024/02/04 08:19:57;;;;;;;25.38;16.55;;;;;;;3.37;100.00;100845.44;5047833;28;20025;-65
2024/02/04 08:22:23;;;;;;;19.75;12.88;;;;;;;3.08;100.00;100785.56;5047685;28;20044;-66
2024/02/04 08:24:48;;;;;;;26.73;17.40;;;;;;;3.42;100.00;100835.59;5045647;28;20094;-65
2024/02/04 08:27:17;;;;;;;20.52;12.75;;;;;;;3.49;100.00;100839.44;5045640;28;20116;-68
2024/02/04 08:29:43;;;;;;;17.00;11.63;;;;;;;3.53;100.00;100841.47;5027212;28;20033;-66
2024/02/04 08:32:09;;;;;;;16.00;10.05;;;;;;;3.59;100.00;100834.25;5044211;28;20036;-68
2024/02/04 08:34:34;;;;;;;17.90;11.40;;;;;;;3.62;100.00;100826.78;5046891;28;20037;-67
2024/02/04 08:37:00;;;;;;;18.40;11.52;;;;;;;3.67;100.00;100825.44;5045641;28;20029;-66
2024/02/04 08:39:26;;;;;;;18.80;12.63;;;;;;;3.79;100.00;100824.53;5038863;28;20040;-67
2024/02/04 08:41:52;;;;;;;20.48;12.55;;;;;;;3.65;100.00;100796.38;5048801;28;20037;-67
2024/02/04 08:44:17;;;;;;;22.77;12.07;;;;;;;3.88;100.00;100815.84;5046281;28;20047;-65
2024/02/04 08:46:43;;;;;;;21.67;13.75;;;;;;;3.68;100.00;100762.50;5037346;28;20029;-66
2024/02/04 08:49:08;;;;;;;22.13;13.07;;;;;;;3.70;100.00;100748.16;5047217;28;20082;-66
2024/02/04 08:51:34;;;;;;;21.35;12.20;;;;;;;3.86;100.00;100752.66;5046867;28;20064;-67
2024/02/04 08:54:00;;;;;;;26.83;15.52;;;;;;;4.43;100.00;100820.38;5045229;28;20489;-66
2024/02/04 08:56:25;;;;;;;18.17;11.05;;;;;;;4.49;100.00;100813.13;5045424;28;20082;-67
2024/02/04 08:58:51;;;;;;;16.15;11.07;;;;;;;4.25;100.00;100761.25;5045107;28;20035;-66
2024/02/04 09:01:16;;;;;;;16.25;10.07;;;;;;;4.64;100.00;100823.50;5042679;28;20033;-67
2024/02/04 09:03:42;;;;;;;14.90;9.73;;;;;;;4.82;100.00;100828.94;5046971;28;20049;-66
2024/02/04 09:06:08;;;;;;;15.65;9.98;;;;;;;4.99;100.00;100832.59;5048533;28;20044;-67
2024/02/04 09:08:34;;;;;;;17.35;11.30;;;;;;;5.20;100.00;100819.44;5049816;28;20037;-66
2024/02/04 09:11:00;;;;;;;15.35;9.63;;;;;;;5.24;100.00;100813.72;5057246;28;20516;-66
2024/02/04 09:13:25;;;;;;;14.90;8.73;;;;;;;5.17;100.00;100742.44;5043881;28;20041;-67
2024/02/04 09:15:51;;;;;;;14.38;9.10;;;;;;;5.74;100.00;100806.56;5042066;28;20040;-67
2024/02/04 09:18:16;;;;;;;15.77;10.05;;;;;;;5.80;100.00;100806.94;5044974;28;20025;-66
2024/02/04 09:20:42;;;;;;;13.48;9.27;;;;;;;6.01;100.00;100811.63;5046897;28;20041;-66
2024/02/04 09:23:07;;;;;;;14.30;8.73;;;;;;;5.99;100.00;100807.31;5043534;28;20112;-66
2024/02/04 09:25:33;;;;;;;14.00;8.88;;;;;;;6.16;100.00;100815.13;5041515;28;20087;-66
2024/02/04 09:27:58;;;;;;;16.67;9.38;;;;;;;6.27;100.00;100808.97;5041852;28;20082;-66
2024/02/04 09:30:24;;;;;;;16.85;10.15;;;;;;;6.45;100.00;100810.84;5041705;28;20029;-66
2024/02/04 09:32:49;;;;;;;13.68;9.27;;;;;;;6.13;100.00;100745.72;5043100;28;20037;-67
2024/02/04 09:35:15;;;;;;;14.75;8.45;;;;;;;6.56;100.00;100778.13;5041806;28;20522;-66
2024/02/04 09:37:42;;;;;;;13.93;7.78;;;;;;;6.80;100.00;100786.34;5042919;28;20029;-66
2024/02/04 09:40:08;;;;;;;10.82;7.60;;;;;;;6.94;100.00;100805.09;5043576;28;20492;-66
2024/02/04 09:42:35;;;;;;;12.18;7.85;;;;;;;7.03;100.00;100815.00;5043415;28;20120;-67
2024/02/04 09:45:01;;;;;;;12.52;7.05;;;;;;;6.91;100.00;100795.53;5043125;28;20040;-66
2024/02/04 09:47:27;;;;;;;10.18;7.65;;;;;;;6.95;100.00;100794.03;5035309;28;20496;-66
2024/02/04 09:49:56;;;;;;;11.95;7.22;;;;;;;7.20;100.00;100805.69;5042570;28;20029;-66
2024/02/04 09:52:30;;;;;;;11.27;7.55;;;;;;;7.22;100.00;100797.28;5041587;28;20033;-67
2024/02/04 09:55:03;;;;;;;10.57;7.47;;;;;;;7.36;100.00;100807.44;5041814;28;20059;-69
2024/02/04 09:57:30;;;;;;;12.07;6.97;;;;;;;7.29;100.00;100762.56;5043724;28;20132;-65
2024/02/04 09:59:56;;;;;;;11.73;8.05;;;;;;;7.47;100.00;100766.94;5043455;28;20482;-66
2024/02/04 10:02:22;;;;;;;9.85;7.05;;;;;;;7.39;99.95;100735.66;5041966;28;20024;-69
2024/02/04 10:04:48;;;;;;;15.05;8.93;;;;;;;7.28;100.00;100684.63;5035065;28;20026;-66
2024/02/04 10:07:16;;;;;;;11.80;7.72;;;;;;;7.98;99.76;100759.34;5042729;28;20048;-69
2024/02/04 10:09:42;;;;;;;13.30;7.28;;;;;;;8.39;98.15;100760.56;5042963;28;20033;-70
2024/02/04 10:12:08;;;;;;;13.50;8.50;;;;;;;8.73;95.90;100757.13;5038833;28;20041;-66
2024/02/04 10:14:33;;;;;;;12.70;7.60;;;;;;;8.88;94.90;100759.56;5040406;28;20057;-67
2024/02/04 10:17:01;;;;;;;11.68;7.30;;;;;;;9.04;92.45;100763.75;5042651;28;20065;-65
2024/02/04 10:19:27;;;;;;;12.13;7.63;;;;;;;9.11;92.47;100742.66;5032244;28;20107;-66
2024/02/04 10:22:00;;;;;;;13.63;8.07;;;;;;;8.94;91.45;100682.63;5043319;28;20032;-70
2024/02/04 10:24:27;;;;;;;14.48;7.60;;;;;;;9.53;91.18;100752.28;5042575;28;20059;-66
2024/02/04 10:26:56;;;;;;;11.55;7.30;;;;;;;9.89;90.16;100754.75;5040901;28;20025;-66
2024/02/04 10:29:25;;;;;;;10.45;7.05;;;;;;;10.09;89.42;100755.63;5041743;28;20508;-67
2024/02/04 10:31:55;;;;;;;11.68;7.30;;;;;;;10.33;88.61;100757.47;5042579;28;20033;-66
2024/02/04 10:34:22;;;;;;;10.90;7.55;;;;;;;10.22;87.97;100738.09;5041470;28;20056;-66
2024/02/04 10:36:49;;;;;;;10.70;6.53;;;;;;;10.36;88.00;100761.13;5040459;28;20033;-66
2024/02/04 10:39:14;;;;;;;13.10;7.50;;;;;;;10.17;88.22;100746.53;5038070;28;20474;-65
2024/02/04 10:41:51;;;;;;;10.00;6.65;;;;;;;10.29;88.07;100753.03;5040532;28;20029;-67
2024/02/04 10:44:17;;;;;;;11.32;7.38;;;;;;;10.30;88.79;100747.91;5040357;28;20076;-70
2024/02/04 10:46:47;;;;;;;11.38;6.05;;;;;;;10.40;87.42;100741.47;5038232;28;20428;-66
2024/02/04 10:49:14;;;;;;;8.82;5.72;;;;;;;10.52;87.73;100751.44;5042353;28;20067;-66
2024/02/04 10:51:41;;;;;;;10.52;6.00;;;;;;;10.60;86.56;100757.78;5041968;28;20037;-65
2024/02/04 10:54:07;;;;;;;9.00;5.38;;;;;;;10.71;86.27;100762.53;5041053;28;20491;-65
2024/02/04 10:56:44;;;;;;;10.88;5.80;;;;;;;10.68;86.87;100765.88;5039913;28;20029;-67
2024/02/04 10:59:14;;;;;;;11.05;6.75;;;;;;;10.72;86.25;100772.06;5040262;28;20060;-65
2024/02/04 11:01:39;;;;;;;;;;;;;;;10.66;85.51;100770.97;5040497;28;20559;-66
2024/02/04 11:04:07;;;;;;;8.30;6.00;;;;;;;10.22;85.63;100699.38;5017864;28;19917;-67
2024/02/04 11:06:35;;;;;;;10.77;6.97;;;;;;;10.56;85.80;100767.97;5038980;28;20045;-68
2024/02/04 11:09:03;;;;;;;9.30;6.28;;;;;;;10.52;85.95;100764.38;5036521;28;20439;-73